sensor_id;sensor_type;location;lat;lon;timestamp;temperature;humidity
70807;DHT22;58882;52.170;5.386;2023-03-01T00:01:18;13.40;37.90
70807;DHT22;58882;52.170;5.386;2023-03-01T00:03:59;13.40;38.00
70807;DHT22;58882;52.170;5.386;2023-03-01T00:06:46;13.40;38.10
70807;DHT22;58882;52.170;5.386;2023-03-01T00:09:27;13.40;38.20
70807;DHT22;58882;52.170;5.386;2023-03-01T00:12:14;13.30;38.30
70807;DHT22;58882;52.170;5.386;2023-03-01T00:14:54;13.40;38.50
70807;DHT22;58882;52.170;5.386;2023-03-01T00:17:34;13.40;38.60
70807;DHT22;58882;52.170;5.386;2023-03-01T00:20:21;13.40;38.60
70807;DHT22;58882;52.170;5.386;2023-03-01T00:23:01;13.30;38.70
70807;DHT22;58882;52.170;5.386;2023-03-01T00:25:49;13.30;38.70
70807;DHT22;58882;52.170;5.386;2023-03-01T00:28:23;13.30;38.80
70807;DHT22;58882;52.170;5.386;2023-03-01T00:31:20;13.30;38.80
70807;DHT22;58882;52.170;5.386;2023-03-01T00:34:02;13.20;38.70
70807;DHT22;58882;52.170;5.386;2023-03-01T00:36:49;13.20;38.80
70807;DHT22;58882;52.170;5.386;2023-03-01T00:39:22;13.30;38.90
70807;DHT22;58882;52.170;5.386;2023-03-01T00:42:16;13.20;39.00
70807;DHT22;58882;52.170;5.386;2023-03-01T00:44:49;13.20;39.10
70807;DHT22;58882;52.170;5.386;2023-03-01T00:47:43;13.20;39.20
70807;DHT22;58882;52.170;5.386;2023-03-01T00:50:17;13.20;40.10
70807;DHT22;58882;52.170;5.386;2023-03-01T00:53:11;13.20;39.20
70807;DHT22;58882;52.170;5.386;2023-03-01T00:56:07;13.20;39.20
70807;DHT22;58882;52.170;5.386;2023-03-01T00:58:47;13.20;39.20
70807;DHT22;58882;52.170;5.386;2023-03-01T01:01:41;13.20;39.40
70807;DHT22;58882;52.170;5.386;2023-03-01T01:04:21;13.10;40.40
70807;DHT22;58882;52.170;5.386;2023-03-01T01:07:08;13.10;39.40
70807;DHT22;58882;52.170;5.386;2023-03-01T01:09:48;13.10;39.60
70807;DHT22;58882;52.170;5.386;2023-03-01T01:12:35;13.10;39.60
70807;DHT22;58882;52.170;5.386;2023-03-01T01:15:15;13.10;39.70
70807;DHT22;58882;52.170;5.386;2023-03-01T01:18:02;13.10;39.70
70807;DHT22;58882;52.170;5.386;2023-03-01T01:20:42;13.10;40.20
70807;DHT22;58882;52.170;5.386;2023-03-01T01:23:29;13.10;41.00
70807;DHT22;58882;52.170;5.386;2023-03-01T01:26:13;13.10;40.10
70807;DHT22;58882;52.170;5.386;2023-03-01T01:29:08;13.10;40.20
70807;DHT22;58882;52.170;5.386;2023-03-01T01:31:48;13.10;40.40
70807;DHT22;58882;52.170;5.386;2023-03-01T01:34:35;13.10;40.40
70807;DHT22;58882;52.170;5.386;2023-03-01T01:37:15;13.10;40.50
70807;DHT22;58882;52.170;5.386;2023-03-01T01:40:03;13.00;40.40
70807;DHT22;58882;52.170;5.386;2023-03-01T01:42:43;13.00;40.60
70807;DHT22;58882;52.170;5.386;2023-03-01T01:45:35;13.00;40.60
70807;DHT22;58882;52.170;5.386;2023-03-01T01:48:20;13.00;40.80
70807;DHT22;58882;52.170;5.386;2023-03-01T01:51:12;13.00;40.80
70807;DHT22;58882;52.170;5.386;2023-03-01T01:53:56;13.00;40.90
70807;DHT22;58882;52.170;5.386;2023-03-01T01:56:50;13.00;40.90
70807;DHT22;58882;52.170;5.386;2023-03-01T01:59:33;13.00;40.90
70807;DHT22;58882;52.170;5.386;2023-03-01T02:02:20;13.00;40.90
70807;DHT22;58882;52.170;5.386;2023-03-01T02:05:11;13.00;40.90
70807;DHT22;58882;52.170;5.386;2023-03-01T02:08:08;13.00;40.90
70807;DHT22;58882;52.170;5.386;2023-03-01T02:10:51;13.00;40.90
70807;DHT22;58882;52.170;5.386;2023-03-01T02:13:40;13.00;41.00
70807;DHT22;58882;52.170;5.386;2023-03-01T02:16:15;13.00;41.00
70807;DHT22;58882;52.170;5.386;2023-03-01T02:19:17;13.00;41.20
70807;DHT22;58882;52.170;5.386;2023-03-01T02:28:26;12.90;41.40
70807;DHT22;58882;52.170;5.386;2023-03-01T02:31:05;12.90;41.40
70807;DHT22;58882;52.170;5.386;2023-03-01T02:33:57;12.90;41.50
70807;DHT22;58882;52.170;5.386;2023-03-01T02:37:02;12.90;41.40
70807;DHT22;58882;52.170;5.386;2023-03-01T02:39:48;12.90;41.50
70807;DHT22;58882;52.170;5.386;2023-03-01T02:42:52;12.80;41.30
70807;DHT22;58882;52.170;5.386;2023-03-01T02:45:33;12.80;41.40
70807;DHT22;58882;52.170;5.386;2023-03-01T02:48:20;12.80;41.40
70807;DHT22;58882;52.170;5.386;2023-03-01T02:51:09;12.80;41.60
70807;DHT22;58882;52.170;5.386;2023-03-01T02:56:48;12.80;41.70
70807;DHT22;58882;52.170;5.386;2023-03-01T02:59:38;12.80;41.70
70807;DHT22;58882;52.170;5.386;2023-03-01T03:02:25;12.80;41.70
70807;DHT22;58882;52.170;5.386;2023-03-01T03:05:27;12.80;41.70
70807;DHT22;58882;52.170;5.386;2023-03-01T03:08:07;12.80;41.70
70807;DHT22;58882;52.170;5.386;2023-03-01T03:10:57;12.80;41.60
70807;DHT22;58882;52.170;5.386;2023-03-01T03:13:38;12.80;41.60
70807;DHT22;58882;52.170;5.386;2023-03-01T03:16:27;12.80;41.60
70807;DHT22;58882;52.170;5.386;2023-03-01T03:19:10;12.80;41.80
70807;DHT22;58882;52.170;5.386;2023-03-01T03:21:56;12.80;42.00
70807;DHT22;58882;52.170;5.386;2023-03-01T03:24:36;12.70;42.00
70807;DHT22;58882;52.170;5.386;2023-03-01T03:27:23;12.80;42.10
70807;DHT22;58882;52.170;5.386;2023-03-01T03:30:06;12.70;42.10
70807;DHT22;58882;52.170;5.386;2023-03-01T03:33:00;12.70;42.10
70807;DHT22;58882;52.170;5.386;2023-03-01T03:35:47;12.70;42.10
70807;DHT22;58882;52.170;5.386;2023-03-01T03:38:41;12.70;42.10
70807;DHT22;58882;52.170;5.386;2023-03-01T03:41:15;12.70;42.00
70807;DHT22;58882;52.170;5.386;2023-03-01T03:44:09;12.70;42.00
70807;DHT22;58882;52.170;5.386;2023-03-01T03:46:42;12.70;43.10
70807;DHT22;58882;52.170;5.386;2023-03-01T03:49:36;12.70;42.10
70807;DHT22;58882;52.170;5.386;2023-03-01T03:52:09;12.70;42.20
70807;DHT22;58882;52.170;5.386;2023-03-01T03:55:05;12.70;42.30
70807;DHT22;58882;52.170;5.386;2023-03-01T03:57:47;12.70;42.30
70807;DHT22;58882;52.170;5.386;2023-03-01T04:00:40;12.70;42.20
70807;DHT22;58882;52.170;5.386;2023-03-01T04:03:15;12.70;42.10
70807;DHT22;58882;52.170;5.386;2023-03-01T04:06:10;12.70;42.10
70807;DHT22;58882;52.170;5.386;2023-03-01T04:08:43;12.70;42.20
70807;DHT22;58882;52.170;5.386;2023-03-01T04:11:37;12.70;42.30
70807;DHT22;58882;52.170;5.386;2023-03-01T04:14:17;12.70;42.30
70807;DHT22;58882;52.170;5.386;2023-03-01T04:17:04;12.70;42.20
70807;DHT22;58882;52.170;5.386;2023-03-01T04:19:44;12.70;42.10
70807;DHT22;58882;52.170;5.386;2023-03-01T04:22:31;12.70;42.20
70807;DHT22;58882;52.170;5.386;2023-03-01T04:25:13;12.70;42.20
70807;DHT22;58882;52.170;5.386;2023-03-01T04:28:00;12.70;42.10
70807;DHT22;58882;52.170;5.386;2023-03-01T04:30:41;12.60;42.10
70807;DHT22;58882;52.170;5.386;2023-03-01T04:33:34;12.60;42.10
70807;DHT22;58882;52.170;5.386;2023-03-01T04:36:16;12.60;42.20
70807;DHT22;58882;52.170;5.386;2023-03-01T04:39:10;12.60;42.10
70807;DHT22;58882;52.170;5.386;2023-03-01T04:41:50;12.60;42.10
70807;DHT22;58882;52.170;5.386;2023-03-01T04:44:37;12.60;42.10
70807;DHT22;58882;52.170;5.386;2023-03-01T04:47:11;12.60;42.10
70807;DHT22;58882;52.170;5.386;2023-03-01T04:50:05;12.60;42.10
70807;DHT22;58882;52.170;5.386;2023-03-01T04:52:46;12.60;42.20
70807;DHT22;58882;52.170;5.386;2023-03-01T04:55:33;12.50;42.10
70807;DHT22;58882;52.170;5.386;2023-03-01T04:58:13;12.50;42.00
70807;DHT22;58882;52.170;5.386;2023-03-01T05:01:00;12.50;42.10
70807;DHT22;58882;52.170;5.386;2023-03-01T05:03:45;12.50;42.00
70807;DHT22;58882;52.170;5.386;2023-03-01T05:06:32;12.50;42.00
70807;DHT22;58882;52.170;5.386;2023-03-01T05:09:12;12.50;42.10
70807;DHT22;58882;52.170;5.386;2023-03-01T05:11:59;12.50;42.10
70807;DHT22;58882;52.170;5.386;2023-03-01T05:14:40;12.50;42.00
70807;DHT22;58882;52.170;5.386;2023-03-01T05:17:27;12.50;41.90
70807;DHT22;58882;52.170;5.386;2023-03-01T05:20:08;12.50;42.00
70807;DHT22;58882;52.170;5.386;2023-03-01T05:22:59;12.50;41.70
70807;DHT22;58882;52.170;5.386;2023-03-01T05:25:39;12.50;41.60
70807;DHT22;58882;52.170;5.386;2023-03-01T05:28:27;12.50;41.50
70807;DHT22;58882;52.170;5.386;2023-03-01T05:31:07;12.50;41.40
70807;DHT22;58882;52.170;5.386;2023-03-01T05:33:54;12.40;41.20
70807;DHT22;58882;52.170;5.386;2023-03-01T05:36:34;12.40;41.20
70807;DHT22;58882;52.170;5.386;2023-03-01T05:39:23;12.40;41.20
70807;DHT22;58882;52.170;5.386;2023-03-01T05:42:03;12.40;41.20
70807;DHT22;58882;52.170;5.386;2023-03-01T05:44:50;12.40;41.20
70807;DHT22;58882;52.170;5.386;2023-03-01T05:47:30;12.30;42.30
70807;DHT22;58882;52.170;5.386;2023-03-01T05:50:20;12.40;41.30
70807;DHT22;58882;52.170;5.386;2023-03-01T05:53:06;12.30;41.20
70807;DHT22;58882;52.170;5.386;2023-03-01T05:56:03;12.30;41.20
70807;DHT22;58882;52.170;5.386;2023-03-01T05:58:57;12.30;42.30
70807;DHT22;58882;52.170;5.386;2023-03-01T06:01:37;12.30;41.20
70807;DHT22;58882;52.170;5.386;2023-03-01T06:04:31;12.30;41.30
70807;DHT22;58882;52.170;5.386;2023-03-01T06:07:04;12.30;41.40
70807;DHT22;58882;52.170;5.386;2023-03-01T06:09:58;12.30;41.30
70807;DHT22;58882;52.170;5.386;2023-03-01T06:12:32;12.30;41.20
70807;DHT22;58882;52.170;5.386;2023-03-01T06:15:27;12.30;41.20
70807;DHT22;58882;52.170;5.386;2023-03-01T06:18:06;12.30;41.30
70807;DHT22;58882;52.170;5.386;2023-03-01T06:20:54;12.30;41.20
70807;DHT22;58882;52.170;5.386;2023-03-01T06:23:35;12.30;41.10
70807;DHT22;58882;52.170;5.386;2023-03-01T06:26:29;12.30;41.00
70807;DHT22;58882;52.170;5.386;2023-03-01T06:29:09;12.30;40.90
70807;DHT22;58882;52.170;5.386;2023-03-01T06:32:03;12.40;40.90
70807;DHT22;58882;52.170;5.386;2023-03-01T06:34:43;12.30;40.80
70807;DHT22;58882;52.170;5.386;2023-03-01T06:37:30;12.30;40.60
70807;DHT22;58882;52.170;5.386;2023-03-01T06:40:04;12.30;40.50
70807;DHT22;58882;52.170;5.386;2023-03-01T06:42:58;12.40;40.50
70807;DHT22;58882;52.170;5.386;2023-03-01T06:45:39;12.40;40.20
70807;DHT22;58882;52.170;5.386;2023-03-01T06:48:35;12.40;40.10
70807;DHT22;58882;52.170;5.386;2023-03-01T06:51:28;12.40;40.00
70807;DHT22;58882;52.170;5.386;2023-03-01T06:54:15;12.50;39.80
70807;DHT22;58882;52.170;5.386;2023-03-01T06:57:09;12.50;39.60
70807;DHT22;58882;52.170;5.386;2023-03-01T06:59:42;12.50;39.40
70807;DHT22;58882;52.170;5.386;2023-03-01T07:02:36;12.50;39.30
70807;DHT22;58882;52.170;5.386;2023-03-01T07:05:09;12.50;39.00
70807;DHT22;58882;52.170;5.386;2023-03-01T07:08:03;12.60;40.00
70807;DHT22;58882;52.170;5.386;2023-03-01T07:10:43;12.70;39.00
70807;DHT22;58882;52.170;5.386;2023-03-01T07:13:32;13.00;38.70
70807;DHT22;58882;52.170;5.386;2023-03-01T07:16:11;13.20;38.20
70807;DHT22;58882;52.170;5.386;2023-03-01T07:19:00;13.40;37.80
70807;DHT22;58882;52.170;5.386;2023-03-01T07:21:40;13.60;37.40
70807;DHT22;58882;52.170;5.386;2023-03-01T07:24:27;13.80;37.10
70807;DHT22;58882;52.170;5.386;2023-03-01T07:27:07;14.10;37.60
70807;DHT22;58882;52.170;5.386;2023-03-01T07:29:54;14.30;36.20
70807;DHT22;58882;52.170;5.386;2023-03-01T07:32:35;14.40;35.70
70807;DHT22;58882;52.170;5.386;2023-03-01T07:35:22;14.60;35.50
70807;DHT22;58882;52.170;5.386;2023-03-01T07:38:02;14.70;35.20
70807;DHT22;58882;52.170;5.386;2023-03-01T07:40:49;15.00;35.10
70807;DHT22;58882;52.170;5.386;2023-03-01T07:43:30;15.10;34.50
70807;DHT22;58882;52.170;5.386;2023-03-01T07:46:24;15.30;34.30
70807;DHT22;58882;52.170;5.386;2023-03-01T07:49:04;15.50;33.90
70807;DHT22;58882;52.170;5.386;2023-03-01T07:51:51;15.60;33.80
70807;DHT22;58882;52.170;5.386;2023-03-01T07:54:31;15.70;33.50
70807;DHT22;58882;52.170;5.386;2023-03-01T07:57:18;15.80;33.40
70807;DHT22;58882;52.170;5.386;2023-03-01T07:59:58;15.90;33.00
70807;DHT22;58882;52.170;5.386;2023-03-01T08:02:45;16.20;32.90
70807;DHT22;58882;52.170;5.386;2023-03-01T08:05:25;16.30;32.60
70807;DHT22;58882;52.170;5.386;2023-03-01T08:08:12;16.40;32.40
70807;DHT22;58882;52.170;5.386;2023-03-01T08:10:52;16.40;32.30
70807;DHT22;58882;52.170;5.386;2023-03-01T08:13:43;16.60;32.20
70807;DHT22;58882;52.170;5.386;2023-03-01T08:16:25;16.80;31.80
70807;DHT22;58882;52.170;5.386;2023-03-01T08:19:13;17.20;31.40
70807;DHT22;58882;52.170;5.386;2023-03-01T08:21:53;17.70;30.70
70807;DHT22;58882;52.170;5.386;2023-03-01T08:24:40;18.20;30.10
70807;DHT22;58882;52.170;5.386;2023-03-01T08:27:20;18.60;29.50
70807;DHT22;58882;52.170;5.386;2023-03-01T08:30:14;19.10;29.60
70807;DHT22;58882;52.170;5.386;2023-03-01T08:32:54;19.50;28.70
70807;DHT22;58882;52.170;5.386;2023-03-01T08:35:41;19.90;28.90
70807;DHT22;58882;52.170;5.386;2023-03-01T08:38:21;20.20;28.00
70807;DHT22;58882;52.170;5.386;2023-03-01T08:41:08;20.60;28.20
70807;DHT22;58882;52.170;5.386;2023-03-01T08:43:49;20.80;27.30
70807;DHT22;58882;52.170;5.386;2023-03-01T08:46:45;21.10;26.90
70807;DHT22;58882;52.170;5.386;2023-03-01T08:49:19;21.40;26.40
70807;DHT22;58882;52.170;5.386;2023-03-01T08:52:13;21.70;26.20
70807;DHT22;58882;52.170;5.386;2023-03-01T08:55:00;21.90;26.50
70807;DHT22;58882;52.170;5.386;2023-03-01T08:57:40;22.20;25.30
70807;DHT22;58882;52.170;5.386;2023-03-01T09:00:27;22.60;25.10
70807;DHT22;58882;52.170;5.386;2023-03-01T09:03:01;22.70;24.70
70807;DHT22;58882;52.170;5.386;2023-03-01T09:06:00;23.00;24.50
70807;DHT22;58882;52.170;5.386;2023-03-01T09:08:36;23.20;24.10
70807;DHT22;58882;52.170;5.386;2023-03-01T09:11:30;23.50;24.00
70807;DHT22;58882;52.170;5.386;2023-03-01T09:14:05;23.70;23.60
70807;DHT22;58882;52.170;5.386;2023-03-01T09:16:59;23.90;23.40
70807;DHT22;58882;52.170;5.386;2023-03-01T09:19:42;24.00;23.10
70807;DHT22;58882;52.170;5.386;2023-03-01T09:22:29;24.30;23.20
70807;DHT22;58882;52.170;5.386;2023-03-01T09:25:09;24.40;22.80
70807;DHT22;58882;52.170;5.386;2023-03-01T09:28:03;24.60;22.70
70807;DHT22;58882;52.170;5.386;2023-03-01T09:30:36;24.70;22.40
70807;DHT22;58882;52.170;5.386;2023-03-01T09:33:32;24.90;22.40
70807;DHT22;58882;52.170;5.386;2023-03-01T09:36:11;25.00;22.10
70807;DHT22;58882;52.170;5.386;2023-03-01T09:39:05;25.20;22.20
70807;DHT22;58882;52.170;5.386;2023-03-01T09:41:57;25.30;22.90
70807;DHT22;58882;52.170;5.386;2023-03-01T09:44:59;25.40;22.00
70807;DHT22;58882;52.170;5.386;2023-03-01T09:47:35;25.40;21.90
70807;DHT22;58882;52.170;5.386;2023-03-01T09:50:39;25.60;21.90
70807;DHT22;58882;52.170;5.386;2023-03-01T09:53:24;25.60;21.80
70807;DHT22;58882;52.170;5.386;2023-03-01T09:56:27;25.70;21.70
70807;DHT22;58882;52.170;5.386;2023-03-01T09:59:30;25.70;21.60
70807;DHT22;58882;52.170;5.386;2023-03-01T10:11:28;26.20;21.70
70807;DHT22;58882;52.170;5.386;2023-03-01T10:14:38;26.10;21.30
70807;DHT22;58882;52.170;5.386;2023-03-01T10:17:50;26.10;21.20
70807;DHT22;58882;52.170;5.386;2023-03-01T10:20:56;26.20;21.10
70807;DHT22;58882;52.170;5.386;2023-03-01T10:23:50;26.20;21.00
70807;DHT22;58882;52.170;5.386;2023-03-01T10:30:01;26.40;21.00
70807;DHT22;58882;52.170;5.386;2023-03-01T10:32:35;26.40;20.80
70807;DHT22;58882;52.170;5.386;2023-03-01T10:35:33;26.40;20.70
70807;DHT22;58882;52.170;5.386;2023-03-01T10:38:10;26.40;20.50
70807;DHT22;58882;52.170;5.386;2023-03-01T10:41:06;26.40;20.50
70807;DHT22;58882;52.170;5.386;2023-03-01T10:43:49;26.40;20.40
70807;DHT22;58882;52.170;5.386;2023-03-01T10:46:43;26.50;20.30
70807;DHT22;58882;52.170;5.386;2023-03-01T10:49:21;26.40;20.30
70807;DHT22;58882;52.170;5.386;2023-03-01T10:52:21;26.40;20.20
70807;DHT22;58882;52.170;5.386;2023-03-01T10:55:30;26.40;20.20
70807;DHT22;58882;52.170;5.386;2023-03-01T10:58:20;26.40;20.20
70807;DHT22;58882;52.170;5.386;2023-03-01T11:01:03;26.40;20.20
70807;DHT22;58882;52.170;5.386;2023-03-01T11:06:59;26.40;20.00
70807;DHT22;58882;52.170;5.386;2023-03-01T11:09:45;26.10;20.00
70807;DHT22;58882;52.170;5.386;2023-03-01T11:12:25;25.80;20.20
70807;DHT22;58882;52.170;5.386;2023-03-01T11:15:26;25.40;20.30
70807;DHT22;58882;52.170;5.386;2023-03-01T11:17:59;24.90;20.20
70807;DHT22;58882;52.170;5.386;2023-03-01T11:20:55;24.70;20.30
70807;DHT22;58882;52.170;5.386;2023-03-01T11:23:37;24.30;20.30
70807;DHT22;58882;52.170;5.386;2023-03-01T11:26:27;24.10;20.30
70807;DHT22;58882;52.170;5.386;2023-03-01T11:29:17;23.80;20.40
70807;DHT22;58882;52.170;5.386;2023-03-01T11:32:40;23.60;20.60
70807;DHT22;58882;52.170;5.386;2023-03-01T11:35:27;23.40;20.60
70807;DHT22;58882;52.170;5.386;2023-03-01T11:38:25;23.20;20.70
70807;DHT22;58882;52.170;5.386;2023-03-01T11:41:10;23.00;20.90
70807;DHT22;58882;52.170;5.386;2023-03-01T11:44:25;22.80;21.00
70807;DHT22;58882;52.170;5.386;2023-03-01T11:47:09;22.60;20.90
70807;DHT22;58882;52.170;5.386;2023-03-01T11:56:09;22.20;21.30
70807;DHT22;58882;52.170;5.386;2023-03-01T12:02:41;21.90;21.20
70807;DHT22;58882;52.170;5.386;2023-03-01T12:05:53;21.80;21.30
70807;DHT22;58882;52.170;5.386;2023-03-01T12:18:00;21.30;21.90
70807;DHT22;58882;52.170;5.386;2023-03-01T12:21:13;21.10;21.80
70807;DHT22;58882;52.170;5.386;2023-03-01T12:27:05;21.00;22.20
70807;DHT22;58882;52.170;5.386;2023-03-01T12:39:32;21.60;22.00
70807;DHT22;58882;52.170;5.386;2023-03-01T12:42:39;21.70;22.00
70807;DHT22;58882;52.170;5.386;2023-03-01T12:48:39;21.90;21.80
70807;DHT22;58882;52.170;5.386;2023-03-01T12:51:23;22.10;21.90
70807;DHT22;58882;52.170;5.386;2023-03-01T12:54:30;22.10;21.90
70807;DHT22;58882;52.170;5.386;2023-03-01T12:57:39;22.20;21.90
70807;DHT22;58882;52.170;5.386;2023-03-01T13:03:35;22.20;21.90
70807;DHT22;58882;52.170;5.386;2023-03-01T13:06:17;22.30;21.80
70807;DHT22;58882;52.170;5.386;2023-03-01T13:12:52;22.30;21.80
70807;DHT22;58882;52.170;5.386;2023-03-01T13:15:40;22.30;21.80
70807;DHT22;58882;52.170;5.386;2023-03-01T13:21:11;22.30;21.80
70807;DHT22;58882;52.170;5.386;2023-03-01T13:23:51;22.30;22.60
70807;DHT22;58882;52.170;5.386;2023-03-01T13:29:54;22.30;21.70
70807;DHT22;58882;52.170;5.386;2023-03-01T13:32:45;22.30;21.70
70807;DHT22;58882;52.170;5.386;2023-03-01T13:44:34;22.30;21.50
70807;DHT22;58882;52.170;5.386;2023-03-01T13:50:04;22.20;21.80
70807;DHT22;58882;52.170;5.386;2023-03-01T13:53:02;22.20;22.70
70807;DHT22;58882;52.170;5.386;2023-03-01T14:01:33;22.00;21.80
70807;DHT22;58882;52.170;5.386;2023-03-01T14:04:28;22.00;21.80
70807;DHT22;58882;52.170;5.386;2023-03-01T14:07:19;21.90;21.80
70807;DHT22;58882;52.170;5.386;2023-03-01T14:10:12;21.80;21.90
70807;DHT22;58882;52.170;5.386;2023-03-01T14:13:07;21.80;21.90
70807;DHT22;58882;52.170;5.386;2023-03-01T14:16:49;21.70;21.80
70807;DHT22;58882;52.170;5.386;2023-03-01T14:19:19;21.60;21.80
70807;DHT22;58882;52.170;5.386;2023-03-01T14:25:18;21.60;21.80
70807;DHT22;58882;52.170;5.386;2023-03-01T14:28:23;21.50;21.70
70807;DHT22;58882;52.170;5.386;2023-03-01T14:31:02;21.40;21.70
70807;DHT22;58882;52.170;5.386;2023-03-01T14:33:56;21.40;21.70
70807;DHT22;58882;52.170;5.386;2023-03-01T14:36:36;21.30;21.70
70807;DHT22;58882;52.170;5.386;2023-03-01T14:39:25;21.30;21.70
70807;DHT22;58882;52.170;5.386;2023-03-01T14:41:59;21.20;21.70
70807;DHT22;58882;52.170;5.386;2023-03-01T14:44:56;21.20;21.80
70807;DHT22;58882;52.170;5.386;2023-03-01T14:47:37;21.10;21.80
70807;DHT22;58882;52.170;5.386;2023-03-01T14:50:32;21.00;21.70
70807;DHT22;58882;52.170;5.386;2023-03-01T14:53:23;21.00;21.60
70807;DHT22;58882;52.170;5.386;2023-03-01T14:56:21;20.90;21.60
70807;DHT22;58882;52.170;5.386;2023-03-01T14:59:15;20.70;21.70
70807;DHT22;58882;52.170;5.386;2023-03-01T15:01:51;20.70;21.90
70807;DHT22;58882;52.170;5.386;2023-03-01T15:04:52;20.70;22.00
70807;DHT22;58882;52.170;5.386;2023-03-01T15:07:38;20.60;21.90
70807;DHT22;58882;52.170;5.386;2023-03-01T15:10:33;20.60;21.80
70807;DHT22;58882;52.170;5.386;2023-03-01T15:13:14;20.50;22.00
70807;DHT22;58882;52.170;5.386;2023-03-01T15:16:12;20.50;22.00
70807;DHT22;58882;52.170;5.386;2023-03-01T15:21:47;20.40;22.20
70807;DHT22;58882;52.170;5.386;2023-03-01T15:24:25;20.40;22.30
70807;DHT22;58882;52.170;5.386;2023-03-01T15:27:23;20.30;22.30
70807;DHT22;58882;52.170;5.386;2023-03-01T15:29:59;20.30;22.30
70807;DHT22;58882;52.170;5.386;2023-03-01T15:33:16;20.30;22.40
70807;DHT22;58882;52.170;5.386;2023-03-01T15:35:55;20.20;22.60
70807;DHT22;58882;52.170;5.386;2023-03-01T15:38:53;20.20;22.60
70807;DHT22;58882;52.170;5.386;2023-03-01T15:41:37;20.10;22.60
70807;DHT22;58882;52.170;5.386;2023-03-01T15:44:34;20.10;22.50
70807;DHT22;58882;52.170;5.386;2023-03-01T15:47:29;20.00;22.60
70807;DHT22;58882;52.170;5.386;2023-03-01T15:50:24;20.00;22.60
70807;DHT22;58882;52.170;5.386;2023-03-01T15:53:00;19.90;22.70
70807;DHT22;58882;52.170;5.386;2023-03-01T15:55:53;19.80;22.80
70807;DHT22;58882;52.170;5.386;2023-03-01T15:58:33;19.70;22.80
70807;DHT22;58882;52.170;5.386;2023-03-01T16:01:27;19.60;22.90
70807;DHT22;58882;52.170;5.386;2023-03-01T16:04:17;19.60;22.90
70807;DHT22;58882;52.170;5.386;2023-03-01T16:07:10;19.50;23.00
70807;DHT22;58882;52.170;5.386;2023-03-01T16:09:43;19.50;23.10
70807;DHT22;58882;52.170;5.386;2023-03-01T16:12:36;19.40;23.20
70807;DHT22;58882;52.170;5.386;2023-03-01T16:15:25;19.40;23.40
70807;DHT22;58882;52.170;5.386;2023-03-01T16:18:19;19.30;23.30
70807;DHT22;58882;52.170;5.386;2023-03-01T16:20:52;19.30;23.30
70807;DHT22;58882;52.170;5.386;2023-03-01T16:23:46;19.30;23.40
70807;DHT22;58882;52.170;5.386;2023-03-01T16:26:19;19.20;23.50
70807;DHT22;58882;52.170;5.386;2023-03-01T16:29:13;19.20;23.50
70807;DHT22;58882;52.170;5.386;2023-03-01T16:31:48;19.10;23.50
70807;DHT22;58882;52.170;5.386;2023-03-01T16:34:42;19.10;23.60
70807;DHT22;58882;52.170;5.386;2023-03-01T16:37:22;19.00;23.60
70807;DHT22;58882;52.170;5.386;2023-03-01T16:40:21;19.00;23.70
70807;DHT22;58882;52.170;5.386;2023-03-01T16:43:02;18.90;23.70
70807;DHT22;58882;52.170;5.386;2023-03-01T16:45:49;18.80;23.80
70807;DHT22;58882;52.170;5.386;2023-03-01T16:48:29;18.70;23.80
70807;DHT22;58882;52.170;5.386;2023-03-01T16:51:17;18.60;23.80
70807;DHT22;58882;52.170;5.386;2023-03-01T16:53:57;18.50;24.00
70807;DHT22;58882;52.170;5.386;2023-03-01T16:56:51;18.50;24.10
70807;DHT22;58882;52.170;5.386;2023-03-01T16:59:45;18.40;24.10
70807;DHT22;58882;52.170;5.386;2023-03-01T17:02:18;18.40;24.30
70807;DHT22;58882;52.170;5.386;2023-03-01T17:05:12;18.40;24.40
70807;DHT22;58882;52.170;5.386;2023-03-01T17:07:45;18.30;24.20
70807;DHT22;58882;52.170;5.386;2023-03-01T17:10:43;18.30;24.30
70807;DHT22;58882;52.170;5.386;2023-03-01T17:13:23;18.20;24.50
70807;DHT22;58882;52.170;5.386;2023-03-01T17:16:14;18.10;24.50
70807;DHT22;58882;52.170;5.386;2023-03-01T17:18:48;18.10;24.50
70807;DHT22;58882;52.170;5.386;2023-03-01T17:21:43;18.00;24.50
70807;DHT22;58882;52.170;5.386;2023-03-01T17:24:16;17.90;24.50
70807;DHT22;58882;52.170;5.386;2023-03-01T17:27:12;17.90;24.70
70807;DHT22;58882;52.170;5.386;2023-03-01T17:29:51;17.90;24.90
70807;DHT22;58882;52.170;5.386;2023-03-01T17:32:45;17.90;24.90
70807;DHT22;58882;52.170;5.386;2023-03-01T17:35:18;17.90;24.90
70807;DHT22;58882;52.170;5.386;2023-03-01T17:38:13;17.90;25.00
70807;DHT22;58882;52.170;5.386;2023-03-01T17:40:53;17.90;25.00
70807;DHT22;58882;52.170;5.386;2023-03-01T17:43:47;17.90;25.30
70807;DHT22;58882;52.170;5.386;2023-03-01T17:46:20;17.80;25.30
70807;DHT22;58882;52.170;5.386;2023-03-01T17:49:14;17.80;25.50
70807;DHT22;58882;52.170;5.386;2023-03-01T17:51:48;17.80;25.50
70807;DHT22;58882;52.170;5.386;2023-03-01T17:54:42;17.80;25.40
70807;DHT22;58882;52.170;5.386;2023-03-01T17:57:29;17.70;25.50
70807;DHT22;58882;52.170;5.386;2023-03-01T18:00:14;17.70;25.50
70807;DHT22;58882;52.170;5.386;2023-03-01T18:03:01;17.70;25.60
70807;DHT22;58882;52.170;5.386;2023-03-01T18:05:35;17.60;25.60
70807;DHT22;58882;52.170;5.386;2023-03-01T18:08:29;17.60;25.70
70807;DHT22;58882;52.170;5.386;2023-03-01T18:11:10;17.60;25.90
70807;DHT22;58882;52.170;5.386;2023-03-01T18:13:56;17.60;25.90
70807;DHT22;58882;52.170;5.386;2023-03-01T18:16:36;17.60;26.00
70807;DHT22;58882;52.170;5.386;2023-03-01T18:19:31;17.60;25.90
70807;DHT22;58882;52.170;5.386;2023-03-01T18:22:04;17.50;25.80
70807;DHT22;58882;52.170;5.386;2023-03-01T18:24:58;17.50;25.80
70807;DHT22;58882;52.170;5.386;2023-03-01T18:27:38;17.50;25.80
70807;DHT22;58882;52.170;5.386;2023-03-01T18:30:32;17.50;25.70
70807;DHT22;58882;52.170;5.386;2023-03-01T18:33:05;17.50;25.70
70807;DHT22;58882;52.170;5.386;2023-03-01T18:35:59;17.40;25.70
70807;DHT22;58882;52.170;5.386;2023-03-01T18:38:39;17.40;25.60
70807;DHT22;58882;52.170;5.386;2023-03-01T18:41:27;17.40;25.60
70807;DHT22;58882;52.170;5.386;2023-03-01T18:44:09;17.40;25.60
70807;DHT22;58882;52.170;5.386;2023-03-01T18:46:56;17.40;25.60
70807;DHT22;58882;52.170;5.386;2023-03-01T18:49:36;17.30;25.60
70807;DHT22;58882;52.170;5.386;2023-03-01T18:52:23;17.40;25.50
70807;DHT22;58882;52.170;5.386;2023-03-01T18:55:03;17.30;25.60
70807;DHT22;58882;52.170;5.386;2023-03-01T18:57:50;17.30;25.60
70807;DHT22;58882;52.170;5.386;2023-03-01T19:00:31;17.30;25.60
70807;DHT22;58882;52.170;5.386;2023-03-01T19:03:18;17.30;26.40
70807;DHT22;58882;52.170;5.386;2023-03-01T19:05:58;17.30;25.60
70807;DHT22;58882;52.170;5.386;2023-03-01T19:08:46;17.30;25.60
70807;DHT22;58882;52.170;5.386;2023-03-01T19:11:26;17.20;25.50